sensor_id;sensor_type;location;lat;lon;timestamp;pressure;altitude;pressure_sealevel;temperature;humidity
75891;BME280;64571;47.512;19.054;2024-03-23T00:54:42;100143.88;;;10.88;68.51
75891;BME280;64571;47.512;19.054;2024-03-23T00:57:44;100131.34;;;10.91;68.84
75891;BME280;64571;47.512;19.054;2024-03-23T01:00:45;100115.78;;;10.76;68.84
75891;BME280;64571;47.512;19.054;2024-03-23T01:03:47;100129.03;;;10.79;68.95
75891;BME280;64571;47.512;19.054;2024-03-23T01:06:48;100125.97;;;10.81;69.30
75891;BME280;64571;47.512;19.054;2024-03-23T01:09:50;100115.78;;;10.76;69.39
75891;BME280;64571;47.512;19.054;2024-03-23T01:12:53;100110.28;;;10.71;68.88
75891;BME280;64571;47.512;19.054;2024-03-23T01:15:56;100094.13;;;10.59;68.81
75891;BME280;64571;47.512;19.054;2024-03-23T01:18:58;100109.25;;;10.67;69.00
75891;BME280;64571;47.512;19.054;2024-03-23T01:21:59;100108.44;;;10.67;69.18
75891;BME280;64571;47.512;19.054;2024-03-23T01:25:01;100094.25;;;10.68;69.01
75891;BME280;64571;47.512;19.054;2024-03-23T01:28:04;100091.97;;;10.70;68.98
75891;BME280;64571;47.512;19.054;2024-03-23T01:31:05;100084.16;;;10.72;69.22
75891;BME280;64571;47.512;19.054;2024-03-23T01:34:07;100071.37;;;10.71;69.00
75891;BME280;64571;47.512;19.054;2024-03-23T01:37:11;100084.78;;;10.83;68.86
75891;BME280;64571;47.512;19.054;2024-03-23T01:40:13;100088.28;;;10.88;68.76
75891;BME280;64571;47.512;19.054;2024-03-23T01:43:15;100088.16;;;10.80;69.24
75891;BME280;64571;47.512;19.054;2024-03-23T01:46:16;100094.03;;;10.78;69.32
75891;BME280;64571;47.512;19.054;2024-03-23T01:49:18;100068.19;;;10.64;69.58
75891;BME280;64571;47.512;19.054;2024-03-23T01:52:20;100079.00;;;10.65;69.71
75891;BME280;64571;47.512;19.054;2024-03-23T01:55:21;100059.41;;;10.57;69.60
75891;BME280;64571;47.512;19.054;2024-03-23T01:58:23;100074.25;;;10.66;69.80
75891;BME280;64571;47.512;19.054;2024-03-23T02:01:25;100063.53;;;10.46;70.42
75891;BME280;64571;47.512;19.054;2024-03-23T02:04:26;100050.56;;;10.41;70.66
75891;BME280;64571;47.512;19.054;2024-03-23T02:07:29;100062.84;;;10.54;70.57
75891;BME280;64571;47.512;19.054;2024-03-23T02:10:30;100053.16;;;10.51;70.75
75891;BME280;64571;47.512;19.054;2024-03-23T02:13:32;100062.19;;;10.57;71.00
75891;BME280;64571;47.512;19.054;2024-03-23T02:16:34;100067.47;;;10.58;71.14
75891;BME280;64571;47.512;19.054;2024-03-23T02:19:35;100043.56;;;10.44;71.46
75891;BME280;64571;47.512;19.054;2024-03-23T02:22:37;100058.59;;;10.56;71.52
75891;BME280;64571;47.512;19.054;2024-03-23T02:25:39;100057.56;;;10.52;71.71
75891;BME280;64571;47.512;19.054;2024-03-23T02:28:41;100049.09;;;10.44;72.13
75891;BME280;64571;47.512;19.054;2024-03-23T02:31:42;100049.91;;;10.30;72.82
75891;BME280;64571;47.512;19.054;2024-03-23T02:34:44;100048.06;;;10.39;72.59
75891;BME280;64571;47.512;19.054;2024-03-23T02:37:46;100023.34;;;10.24;72.90
75891;BME280;64571;47.512;19.054;2024-03-23T02:40:51;100042.69;;;10.29;73.29
75891;BME280;64571;47.512;19.054;2024-03-23T02:43:53;100014.44;;;10.08;73.75
75891;BME280;64571;47.512;19.054;2024-03-23T02:46:55;100020.84;;;10.09;74.19
75891;BME280;64571;47.512;19.054;2024-03-23T02:49:56;100025.47;;;10.13;74.35
75891;BME280;64571;47.512;19.054;2024-03-23T02:52:58;100017.75;;;10.10;74.61
75891;BME280;64571;47.512;19.054;2024-03-23T02:55:59;100013.00;;;10.11;75.14
75891;BME280;64571;47.512;19.054;2024-03-23T02:59:01;100016.69;;;10.06;75.44
75891;BME280;64571;47.512;19.054;2024-03-23T03:02:03;99999.03;;;9.83;76.39
75891;BME280;64571;47.512;19.054;2024-03-23T03:05:06;99999.72;;;9.75;76.84
75891;BME280;64571;47.512;19.054;2024-03-23T03:08:07;99992.00;;;9.72;77.22
75891;BME280;64571;47.512;19.054;2024-03-23T03:11:12;100010.88;;;9.89;76.89
75891;BME280;64571;47.512;19.054;2024-03-23T03:14:13;99984.03;;;9.84;76.51
75891;BME280;64571;47.512;19.054;2024-03-23T03:17:15;99996.69;;;9.90;76.42
75891;BME280;64571;47.512;19.054;2024-03-23T03:20:17;99980.75;;;9.82;76.51
75891;BME280;64571;47.512;19.054;2024-03-23T03:23:19;99997.72;;;9.95;76.52
75891;BME280;64571;47.512;19.054;2024-03-23T03:26:20;99988.03;;;9.78;76.69
75891;BME280;64571;47.512;19.054;2024-03-23T03:29:22;99997.91;;;9.84;76.59
75891;BME280;64571;47.512;19.054;2024-03-23T03:32:24;99997.53;;;9.91;76.75
75891;BME280;64571;47.512;19.054;2024-03-23T03:35:25;99986.81;;;9.84;77.03
75891;BME280;64571;47.512;19.054;2024-03-23T03:38:27;99991.94;;;9.77;77.37
75891;BME280;64571;47.512;19.054;2024-03-23T03:41:29;99966.78;;;9.55;77.81
75891;BME280;64571;47.512;19.054;2024-03-23T03:44:30;99968.84;;;9.63;77.42
75891;BME280;64571;47.512;19.054;2024-03-23T03:47:32;99992.31;;;9.71;77.61
75891;BME280;64571;47.512;19.054;2024-03-23T03:50:34;99963.53;;;9.67;77.24
75891;BME280;64571;47.512;19.054;2024-03-23T03:53:35;99969.06;;;9.67;77.27
75891;BME280;64571;47.512;19.054;2024-03-23T03:56:37;99982.47;;;9.78;77.40
75891;BME280;64571;47.512;19.054;2024-03-23T03:59:39;99977.97;;;9.82;77.19
75891;BME280;64571;47.512;19.054;2024-03-23T04:02:40;99960.56;;;9.77;76.95
75891;BME280;64571;47.512;19.054;2024-03-23T04:05:43;99971.50;;;9.87;76.97
75891;BME280;64571;47.512;19.054;2024-03-23T04:08:44;99972.84;;;9.89;76.91
75891;BME280;64571;47.512;19.054;2024-03-23T04:11:46;99977.25;;;9.90;76.91
75891;BME280;64571;47.512;19.054;2024-03-23T04:14:51;99972.34;;;9.87;77.09
75891;BME280;64571;47.512;19.054;2024-03-23T04:17:53;99950.81;;;9.79;77.02
75891;BME280;64571;47.512;19.054;2024-03-23T04:20:55;99955.31;;;9.75;77.14
75891;BME280;64571;47.512;19.054;2024-03-23T04:23:56;99965.19;;;9.81;77.62
75891;BME280;64571;47.512;19.054;2024-03-23T04:26:58;99964.38;;;9.81;77.54
75891;BME280;64571;47.512;19.054;2024-03-23T04:29:59;99961.00;;;9.84;77.86
75891;BME280;64571;47.512;19.054;2024-03-23T04:33:02;99957.59;;;9.73;78.60
75891;BME280;64571;47.512;19.054;2024-03-23T04:36:04;99961.59;;;9.81;78.29
75891;BME280;64571;47.512;19.054;2024-03-23T04:39:06;99953.69;;;9.74;78.76
75891;BME280;64571;47.512;19.054;2024-03-23T04:42:10;99957.19;;;9.80;78.60
75891;BME280;64571;47.512;19.054;2024-03-23T04:45:11;99940.94;;;9.73;78.38
75891;BME280;64571;47.512;19.054;2024-03-23T04:48:13;99964.19;;;9.77;78.77
75891;BME280;64571;47.512;19.054;2024-03-23T04:51:22;99957.78;;;9.77;78.86
75891;BME280;64571;47.512;19.054;2024-03-23T04:54:23;99940.06;;;9.59;79.60
75891;BME280;64571;47.512;19.054;2024-03-23T04:57:26;99958.84;;;9.81;79.06
75891;BME280;64571;47.512;19.054;2024-03-23T05:00:31;99949.78;;;9.75;79.36
75891;BME280;64571;47.512;19.054;2024-03-23T05:03:32;99947.53;;;9.77;79.44
75891;BME280;64571;47.512;19.054;2024-03-23T05:06:34;99953.59;;;9.79;79.33
75891;BME280;64571;47.512;19.054;2024-03-23T05:09:36;99950.38;;;9.72;79.68
75891;BME280;64571;47.512;19.054;2024-03-23T05:12:37;99936.09;;;9.65;79.66
75891;BME280;64571;47.512;19.054;2024-03-23T05:15:39;99933.53;;;9.69;79.42
75891;BME280;64571;47.512;19.054;2024-03-23T05:18:40;99934.34;;;9.69;79.39
75891;BME280;64571;47.512;19.054;2024-03-23T05:21:42;99950.72;;;9.84;79.40
75891;BME280;64571;47.512;19.054;2024-03-23T05:24:45;99946.31;;;9.83;79.29
75891;BME280;64571;47.512;19.054;2024-03-23T05:27:46;99932.91;;;9.72;79.43
75891;BME280;64571;47.512;19.054;2024-03-23T05:30:52;99937.63;;;9.71;79.62
75891;BME280;64571;47.512;19.054;2024-03-23T05:33:54;99944.12;;;9.80;79.53
75891;BME280;64571;47.512;19.054;2024-03-23T05:36:56;99938.22;;;9.87;79.30
75891;BME280;64571;47.512;19.054;2024-03-23T05:39:57;99930.88;;;9.77;79.06
75891;BME280;64571;47.512;19.054;2024-03-23T05:42:59;99939.75;;;9.93;78.84
75891;BME280;64571;47.512;19.054;2024-03-23T05:46:01;99924.50;;;9.90;78.54
75891;BME280;64571;47.512;19.054;2024-03-23T05:49:09;99923.41;;;9.92;78.44
75891;BME280;64571;47.512;19.054;2024-03-23T05:52:10;99913.62;;;9.94;78.29
75891;BME280;64571;47.512;19.054;2024-03-23T05:55:12;99911.41;;;9.96;78.23
75891;BME280;64571;47.512;19.054;2024-03-23T05:58:15;99915.31;;;9.95;78.34
75891;BME280;64571;47.512;19.054;2024-03-23T06:01:17;99910.97;;;10.03;77.95
75891;BME280;64571;47.512;19.054;2024-03-23T06:04:19;99931.56;;;10.15;77.75
75891;BME280;64571;47.512;19.054;2024-03-23T06:07:20;99936.72;;;10.22;77.62
75891;BME280;64571;47.512;19.054;2024-03-23T06:10:22;99934.56;;;10.19;77.71
75891;BME280;64571;47.512;19.054;2024-03-23T06:13:24;99907.00;;;10.09;77.80
75891;BME280;64571;47.512;19.054;2024-03-23T06:16:31;99899.66;;;10.13;77.74
75891;BME280;64571;47.512;19.054;2024-03-23T06:19:32;99916.91;;;10.29;77.84
75891;BME280;64571;47.512;19.054;2024-03-23T06:22:34;99899.41;;;10.28;77.68
75891;BME280;64571;47.512;19.054;2024-03-23T06:25:36;99893.16;;;10.36;77.56
75891;BME280;64571;47.512;19.054;2024-03-23T06:28:37;99895.91;;;10.50;77.16
75891;BME280;64571;47.512;19.054;2024-03-23T06:31:39;99883.22;;;10.58;76.63
75891;BME280;64571;47.512;19.054;2024-03-23T06:34:43;99874.72;;;10.54;77.01
75891;BME280;64571;47.512;19.054;2024-03-23T06:37:45;99881.03;;;10.82;76.30
75891;BME280;64571;47.512;19.054;2024-03-23T06:40:47;99880.84;;;10.65;76.70
75891;BME280;64571;47.512;19.054;2024-03-23T06:43:51;99863.91;;;10.39;77.25
75891;BME280;64571;47.512;19.054;2024-03-23T06:46:53;99881.59;;;10.57;77.11
75891;BME280;64571;47.512;19.054;2024-03-23T06:49:55;99875.22;;;10.56;77.29
75891;BME280;64571;47.512;19.054;2024-03-23T06:52:56;99883.00;;;10.82;76.20
75891;BME280;64571;47.512;19.054;2024-03-23T06:55:58;99887.25;;;11.02;75.03
75891;BME280;64571;47.512;19.054;2024-03-23T06:59:00;99876.09;;;10.79;75.00
75891;BME280;64571;47.512;19.054;2024-03-23T07:02:02;99875.50;;;10.69;75.34
75891;BME280;64571;47.512;19.054;2024-03-23T07:05:04;99883.06;;;10.90;75.11
75891;BME280;64571;47.512;19.054;2024-03-23T07:08:06;99884.59;;;10.97;75.11
75891;BME280;64571;47.512;19.054;2024-03-23T07:11:07;99868.72;;;10.97;74.49
75891;BME280;64571;47.512;19.054;2024-03-23T07:14:09;99881.34;;;11.39;73.70
75891;BME280;64571;47.512;19.054;2024-03-23T07:17:10;99855.66;;;11.43;72.99
75891;BME280;64571;47.512;19.054;2024-03-23T07:20:12;99868.09;;;11.68;72.21
75891;BME280;64571;47.512;19.054;2024-03-23T07:23:14;99866.03;;;11.51;72.64
75891;BME280;64571;47.512;19.054;2024-03-23T07:26:16;99864.63;;;11.84;71.73
75891;BME280;64571;47.512;19.054;2024-03-23T07:29:17;99857.91;;;11.85;71.67
75891;BME280;64571;47.512;19.054;2024-03-23T07:32:19;99862.88;;;11.75;71.88
75891;BME280;64571;47.512;19.054;2024-03-23T07:35:20;99857.13;;;11.94;71.46
75891;BME280;64571;47.512;19.054;2024-03-23T07:38:23;99854.28;;;12.16;70.66
75891;BME280;64571;47.512;19.054;2024-03-23T07:41:25;99851.50;;;12.16;70.49
75891;BME280;64571;47.512;19.054;2024-03-23T07:44:26;99836.72;;;12.15;70.33
75891;BME280;64571;47.512;19.054;2024-03-23T07:47:28;99810.69;;;12.20;69.91
75891;BME280;64571;47.512;19.054;2024-03-23T07:50:29;99814.66;;;12.36;70.02
75891;BME280;64571;47.512;19.054;2024-03-23T07:53:32;99827.28;;;12.42;70.05
75891;BME280;64571;47.512;19.054;2024-03-23T07:56:34;99821.91;;;12.55;69.68
75891;BME280;64571;47.512;19.054;2024-03-23T07:59:35;99816.50;;;12.58;69.52
75891;BME280;64571;47.512;19.054;2024-03-23T08:02:37;99815.06;;;12.61;69.70
75891;BME280;64571;47.512;19.054;2024-03-23T08:05:38;99819.31;;;12.67;69.86
75891;BME280;64571;47.512;19.054;2024-03-23T08:08:41;99804.88;;;12.74;69.70
75891;BME280;64571;47.512;19.054;2024-03-23T08:11:43;99788.31;;;12.68;69.56
75891;BME280;64571;47.512;19.054;2024-03-23T08:14:48;99789.63;;;12.88;69.10
75891;BME280;64571;47.512;19.054;2024-03-23T08:17:50;99808.00;;;13.15;68.83
75891;BME280;64571;47.512;19.054;2024-03-23T08:23:59;99803.87;;;13.48;67.61
75891;BME280;64571;47.512;19.054;2024-03-23T08:27:00;99801.50;;;13.67;66.77
75891;BME280;64571;47.512;19.054;2024-03-23T08:30:02;99796.88;;;13.80;66.49
75891;BME280;64571;47.512;19.054;2024-03-23T08:33:04;99794.31;;;13.96;65.84
75891;BME280;64571;47.512;19.054;2024-03-23T08:36:08;99789.66;;;14.08;65.51
75891;BME280;64571;47.512;19.054;2024-03-23T08:39:10;99782.81;;;14.27;64.80
75891;BME280;64571;47.512;19.054;2024-03-23T08:42:11;99773.22;;;14.07;64.85
75891;BME280;64571;47.512;19.054;2024-03-23T08:45:13;99759.94;;;14.04;65.12
75891;BME280;64571;47.512;19.054;2024-03-23T08:48:15;99758.81;;;14.26;64.93
75891;BME280;64571;47.512;19.054;2024-03-23T08:51:17;99758.13;;;14.79;63.25
75891;BME280;64571;47.512;19.054;2024-03-23T08:54:18;99753.81;;;15.36;61.46
75891;BME280;64571;47.512;19.054;2024-03-23T08:57:22;99742.69;;;15.39;60.78
75891;BME280;64571;47.512;19.054;2024-03-23T09:00:24;99764.06;;;15.77;59.95
75891;BME280;64571;47.512;19.054;2024-03-23T09:03:25;99756.56;;;15.69;60.00
75891;BME280;64571;47.512;19.054;2024-03-23T09:06:27;99744.09;;;16.03;59.06
75891;BME280;64571;47.512;19.054;2024-03-23T09:09:29;99746.75;;;16.36;58.02
75891;BME280;64571;47.512;19.054;2024-03-23T09:12:30;99746.88;;;16.40;57.54
75891;BME280;64571;47.512;19.054;2024-03-23T09:15:34;99721.94;;;16.51;57.41
75891;BME280;64571;47.512;19.054;2024-03-23T09:18:36;99726.03;;;16.93;56.53
75891;BME280;64571;47.512;19.054;2024-03-23T09:21:38;99702.25;;;16.75;56.42
75891;BME280;64571;47.512;19.054;2024-03-23T09:24:40;99711.63;;;16.95;56.75
75891;BME280;64571;47.512;19.054;2024-03-23T09:27:41;99703.78;;;16.73;56.99
75891;BME280;64571;47.512;19.054;2024-03-23T09:30:43;99699.75;;;16.86;56.86
75891;BME280;64571;47.512;19.054;2024-03-23T09:33:45;99696.69;;;17.35;55.19
75891;BME280;64571;47.512;19.054;2024-03-23T09:36:47;99682.47;;;17.43;54.60
75891;BME280;64571;47.512;19.054;2024-03-23T09:39:48;99685.91;;;17.84;53.76
75891;BME280;64571;47.512;19.054;2024-03-23T09:42:50;99670.56;;;17.82;53.64
75891;BME280;64571;47.512;19.054;2024-03-23T09:45:52;99683.19;;;17.88;53.71
75891;BME280;64571;47.512;19.054;2024-03-23T09:48:55;99656.69;;;17.41;54.71
75891;BME280;64571;47.512;19.054;2024-03-23T09:51:57;99657.59;;;17.45;54.91
75891;BME280;64571;47.512;19.054;2024-03-23T09:54:59;99672.13;;;17.48;55.18
75891;BME280;64571;47.512;19.054;2024-03-23T09:58:01;99648.09;;;17.82;54.11
75891;BME280;64571;47.512;19.054;2024-03-23T10:01:03;99644.59;;;18.04;53.49
75891;BME280;64571;47.512;19.054;2024-03-23T10:04:05;99644.72;;;18.46;52.75
75891;BME280;64571;47.512;19.054;2024-03-23T10:07:14;99643.37;;;18.98;51.53
75891;BME280;64571;47.512;19.054;2024-03-23T10:10:16;99618.47;;;19.46;49.87
75891;BME280;64571;47.512;19.054;2024-03-23T10:13:28;99621.38;;;19.77;47.72
75891;BME280;64571;47.512;19.054;2024-03-23T10:16:36;99608.06;;;20.00;47.43
75891;BME280;64571;47.512;19.054;2024-03-23T10:19:37;99628.44;;;19.63;45.52
75891;BME280;64571;47.512;19.054;2024-03-23T10:22:39;99610.50;;;19.75;45.02
75891;BME280;64571;47.512;19.054;2024-03-23T10:25:40;99610.69;;;19.63;45.20
75891;BME280;64571;47.512;19.054;2024-03-23T10:29:01;99610.94;;;19.54;45.57
75891;BME280;64571;47.512;19.054;2024-03-23T10:32:16;99601.53;;;19.96;44.90
75891;BME280;64571;47.512;19.054;2024-03-23T10:35:19;99593.16;;;19.73;45.70
75891;BME280;64571;47.512;19.054;2024-03-23T10:38:22;99590.75;;;19.75;45.49
75891;BME280;64571;47.512;19.054;2024-03-23T10:41:28;99586.78;;;19.30;44.89
75891;BME280;64571;47.512;19.054;2024-03-23T10:44:31;99579.84;;;19.24;44.38
75891;BME280;64571;47.512;19.054;2024-03-23T10:47:35;99570.59;;;19.01;45.01
75891;BME280;64571;47.512;19.054;2024-03-23T10:50:37;99569.63;;;19.39;44.89
75891;BME280;64571;47.512;19.054;2024-03-23T10:53:39;99568.59;;;19.24;44.99
75891;BME280;64571;47.512;19.054;2024-03-23T10:56:41;99558.19;;;19.55;44.48
75891;BME280;64571;47.512;19.054;2024-03-23T10:59:44;99548.56;;;19.56;44.11
75891;BME280;64571;47.512;19.054;2024-03-23T11:02:47;99535.09;;;19.72;44.06
75891;BME280;64571;47.512;19.054;2024-03-23T11:05:50;99531.75;;;19.63;44.55
75891;BME280;64571;47.512;19.054;2024-03-23T11:08:51;99523.66;;;19.35;44.18
75891;BME280;64571;47.512;19.054;2024-03-23T11:11:53;99534.63;;;19.66;43.67
75891;BME280;64571;47.512;19.054;2024-03-23T11:15:02;99515.00;;;19.73;43.11
75891;BME280;64571;47.512;19.054;2024-03-23T11:18:07;99519.53;;;20.12;41.62
75891;BME280;64571;47.512;19.054;2024-03-23T11:24:52;99509.03;;;20.09;41.07
75891;BME280;64571;47.512;19.054;2024-03-23T11:27:58;99491.19;;;20.38;41.15
75891;BME280;64571;47.512;19.054;2024-03-23T11:31:00;99493.88;;;20.24;42.03
75891;BME280;64571;47.512;19.054;2024-03-23T11:34:05;99491.81;;;20.21;42.22
75891;BME280;64571;47.512;19.054;2024-03-23T11:37:07;99486.69;;;20.30;41.43
75891;BME280;64571;47.512;19.054;2024-03-23T11:40:18;99485.88;;;20.30;40.97
75891;BME280;64571;47.512;19.054;2024-03-23T11:43:33;99479.38;;;20.26;40.70
75891;BME280;64571;47.512;19.054;2024-03-23T11:46:35;99474.53;;;20.22;40.72
75891;BME280;64571;47.512;19.054;2024-03-23T11:49:39;99455.13;;;20.21;40.62
75891;BME280;64571;47.512;19.054;2024-03-23T11:52:42;99463.72;;;20.32;40.41
75891;BME280;64571;47.512;19.054;2024-03-23T11:58:45;99448.91;;;20.42;40.50
75891;BME280;64571;47.512;19.054;2024-03-23T12:01:51;99455.22;;;20.28;40.88
75891;BME280;64571;47.512;19.054;2024-03-23T12:04:53;99435.31;;;20.14;40.68
75891;BME280;64571;47.512;19.054;2024-03-23T12:07:54;99424.28;;;20.02;40.60
75891;BME280;64571;47.512;19.054;2024-03-23T12:11:11;99415.31;;;19.92;40.71
75891;BME280;64571;47.512;19.054;2024-03-23T12:14:14;99411.38;;;20.01;40.53
75891;BME280;64571;47.512;19.054;2024-03-23T12:17:16;99410.94;;;19.98;40.38
75891;BME280;64571;47.512;19.054;2024-03-23T12:20:17;99409.78;;;20.00;40.25
75891;BME280;64571;47.512;19.054;2024-03-23T12:23:19;99412.00;;;19.83;40.29
75891;BME280;64571;47.512;19.054;2024-03-23T12:26:22;99408.56;;;19.67;40.43
75891;BME280;64571;47.512;19.054;2024-03-23T12:29:29;99376.19;;;19.57;40.30
75891;BME280;64571;47.512;19.054;2024-03-23T12:32:32;99379.97;;;19.65;40.12
75891;BME280;64571;47.512;19.054;2024-03-23T12:35:34;99389.34;;;19.76;39.63
75891;BME280;64571;47.512;19.054;2024-03-23T12:38:36;99366.72;;;19.69;39.51
75891;BME280;64571;47.512;19.054;2024-03-23T12:41:38;99358.72;;;19.75;39.54
75891;BME280;64571;47.512;19.054;2024-03-23T12:44:39;99360.78;;;19.81;39.58
75891;BME280;64571;47.512;19.054;2024-03-23T12:47:41;99352.28;;;19.74;39.77
75891;BME280;64571;47.512;19.054;2024-03-23T12:50:42;99363.59;;;19.81;39.44
75891;BME280;64571;47.512;19.054;2024-03-23T12:53:44;99354.63;;;19.68;39.52
75891;BME280;64571;47.512;19.054;2024-03-23T12:56:46;99343.47;;;19.45;39.54
75891;BME280;64571;47.512;19.054;2024-03-23T12:59:47;99349.47;;;19.44;39.93
75891;BME280;64571;47.512;19.054;2024-03-23T13:02:51;99330.81;;;19.32;40.21
75891;BME280;64571;47.512;19.054;2024-03-23T13:05:55;99336.81;;;19.31;40.48
75891;BME280;64571;47.512;19.054;2024-03-23T13:08:57;99351.41;;;19.36;40.49
75891;BME280;64571;47.512;19.054;2024-03-23T13:11:59;99328.31;;;19.27;40.11
75891;BME280;64571;47.512;19.054;2024-03-23T13:15:00;99336.53;;;19.39;40.17
75891;BME280;64571;47.512;19.054;2024-03-23T13:18:08;99314.56;;;19.22;40.09
75891;BME280;64571;47.512;19.054;2024-03-23T13:21:09;99313.84;;;19.29;40.00
75891;BME280;64571;47.512;19.054;2024-03-23T13:24:11;99321.06;;;19.26;39.91
75891;BME280;64571;47.512;19.054;2024-03-23T13:27:12;99319.84;;;19.27;39.86
75891;BME280;64571;47.512;19.054;2024-03-23T13:30:14;99320.63;;;19.24;39.96
75891;BME280;64571;47.512;19.054;2024-03-23T13:33:16;99315.34;;;19.19;39.90
75891;BME280;64571;47.512;19.054;2024-03-23T13:36:17;99314.16;;;19.20;40.04
75891;BME280;64571;47.512;19.054;2024-03-23T13:39:21;99316.91;;;19.16;40.11
75891;BME280;64571;47.512;19.054;2024-03-23T13:42:23;99311.28;;;19.16;39.91
75891;BME280;64571;47.512;19.054;2024-03-23T13:45:27;99299.16;;;19.12;40.00
75891;BME280;64571;47.512;19.054;2024-03-23T13:48:28;99301.97;;;19.12;39.89
75891;BME280;64571;47.512;19.054;2024-03-23T13:51:33;99291.44;;;19.06;39.92
75891;BME280;64571;47.512;19.054;2024-03-23T13:54:34;99283.84;;;19.10;39.92
75891;BME280;64571;47.512;19.054;2024-03-23T13:57:36;99285.84;;;19.09;39.98
75891;BME280;64571;47.512;19.054;2024-03-23T14:00:38;99274.59;;;19.09;39.98
75891;BME280;64571;47.512;19.054;2024-03-23T14:03:40;99274.94;;;19.08;40.00
75891;BME280;64571;47.512;19.054;2024-03-23T14:06:42;99271.78;;;19.09;40.05
75891;BME280;64571;47.512;19.054;2024-03-23T14:09:46;99271.78;;;19.09;40.22
75891;BME280;64571;47.512;19.054;2024-03-23T14:12:50;99270.94;;;19.09;40.28
75891;BME280;64571;47.512;19.054;2024-03-23T14:15:53;99267.81;;;19.14;40.27
75891;BME280;64571;47.512;19.054;2024-03-23T14:18:54;99253.22;;;19.08;40.38
75891;BME280;64571;47.512;19.054;2024-03-23T14:21:56;99242.69;;;19.02;40.47
75891;BME280;64571;47.512;19.054;2024-03-23T14:24:58;99252.34;;;19.01;40.59
75891;BME280;64571;47.512;19.054;2024-03-23T14:28:00;99256.03;;;19.08;40.75
75891;BME280;64571;47.512;19.054;2024-03-23T14:31:01;99249.59;;;19.08;40.29
75891;BME280;64571;47.512;19.054;2024-03-23T14:34:04;99243.16;;;19.07;40.23
75891;BME280;64571;47.512;19.054;2024-03-23T14:37:06;99243.59;;;19.09;40.17
75891;BME280;64571;47.512;19.054;2024-03-23T14:40:10;99243.97;;;19.08;40.21
75891;BME280;64571;47.512;19.054;2024-03-23T14:43:14;99218.56;;;19.01;40.23
75891;BME280;64571;47.512;19.054;2024-03-23T14:46:19;99238.72;;;19.06;40.16
75891;BME280;64571;47.512;19.054;2024-03-23T14:49:21;99215.63;;;18.93;40.23
75891;BME280;64571;47.512;19.054;2024-03-23T14:52:22;99216.03;;;18.92;40.27
75891;BME280;64571;47.512;19.054;2024-03-23T14:55:24;99224.84;;;18.90;40.46
75891;BME280;64571;47.512;19.054;2024-03-23T14:58:26;99241.44;;;18.99;40.53
75891;BME280;64571;47.512;19.054;2024-03-23T15:01:27;99231.78;;;18.96;40.62
75891;BME280;64571;47.512;19.054;2024-03-23T15:04:29;99251.81;;;18.91;41.03
75891;BME280;64571;47.512;19.054;2024-03-23T15:07:33;99232.34;;;18.79;41.34
75891;BME280;64571;47.512;19.054;2024-03-23T15:10:35;99242.41;;;18.80;41.67
75891;BME280;64571;47.512;19.054;2024-03-23T15:13:37;99231.91;;;18.77;41.90
75891;BME280;64571;47.512;19.054;2024-03-23T15:16:39;99245.69;;;18.82;42.27
75891;BME280;64571;47.512;19.054;2024-03-23T15:19:40;99239.19;;;18.78;42.52
75891;BME280;64571;47.512;19.054;2024-03-23T15:22:46;99238.31;;;18.74;42.53
75891;BME280;64571;47.512;19.054;2024-03-23T15:26:14;99243.56;;;18.76;42.54
75891;BME280;64571;47.512;19.054;2024-03-23T15:29:17;99235.88;;;18.72;42.63
75891;BME280;64571;47.512;19.054;2024-03-23T15:32:19;99227.41;;;18.69;42.60
75891;BME280;64571;47.512;19.054;2024-03-23T15:35:20;99240.28;;;18.70;42.83
75891;BME280;64571;47.512;19.054;2024-03-23T15:38:26;99240.59;;;18.65;43.08
75891;BME280;64571;47.512;19.054;2024-03-23T15:41:28;99240.19;;;18.66;43.25
75891;BME280;64571;47.512;19.054;2024-03-23T15:44:30;99243.34;;;18.61;43.56
75891;BME280;64571;47.512;19.054;2024-03-23T15:47:31;99242.06;;;18.55;43.69
75891;BME280;64571;47.512;19.054;2024-03-23T15:50:33;99242.00;;;18.52;43.83
75891;BME280;64571;47.512;19.054;2024-03-23T15:53:35;99225.28;;;18.36;43.85
75891;BME280;64571;47.512;19.054;2024-03-23T15:56:36;99235.41;;;18.40;44.07
75891;BME280;64571;47.512;19.054;2024-03-23T15:59:41;99230.50;;;18.34;44.05
75891;BME280;64571;47.512;19.054;2024-03-23T16:02:42;99235.31;;;18.33;44.09
75891;BME280;64571;47.512;19.054;2024-03-23T16:05:53;99223.06;;;18.22;44.00
75891;BME280;64571;47.512;19.054;2024-03-23T16:08:54;99251.72;;;18.31;43.75
75891;BME280;64571;47.512;19.054;2024-03-23T16:11:56;99244.50;;;18.30;43.74
75891;BME280;64571;47.512;19.054;2024-03-23T16:14:57;99253.69;;;18.27;43.83
75891;BME280;64571;47.512;19.054;2024-03-23T16:17:59;99245.63;;;18.26;43.85
75891;BME280;64571;47.512;19.054;2024-03-23T16:21:05;99238.75;;;18.23;43.94
75891;BME280;64571;47.512;19.054;2024-03-23T16:24:07;99241.47;;;18.16;44.07
75891;BME280;64571;47.512;19.054;2024-03-23T16:27:09;99237.03;;;18.15;44.16
75891;BME280;64571;47.512;19.054;2024-03-23T16:30:11;99240.13;;;18.10;44.26
75891;BME280;64571;47.512;19.054;2024-03-23T16:33:13;99223.91;;;18.00;44.09
75891;BME280;64571;47.512;19.054;2024-03-23T16:36:15;99214.25;;;17.97;44.19
75891;BME280;64571;47.512;19.054;2024-03-23T16:39:18;99237.59;;;18.01;44.57
75891;BME280;64571;47.512;19.054;2024-03-23T16:42:20;99225.84;;;17.95;44.71
75891;BME280;64571;47.512;19.054;2024-03-23T16:45:22;99227.38;;;17.89;45.17
75891;BME280;64571;47.512;19.054;2024-03-23T16:48:25;99222.44;;;17.83;45.47
75891;BME280;64571;47.512;19.054;2024-03-23T16:51:27;99213.44;;;17.74;45.69
75891;BME280;64571;47.512;19.054;2024-03-23T16:54:28;99204.06;;;17.66;45.77
75891;BME280;64571;47.512;19.054;2024-03-23T16:57:30;99208.03;;;17.65;46.05